Time;durP1;ratioP1;P1;durP2;ratioP2;P2;SDS_P1;SDS_P2;PMS_P1;PMS_P2;Temp;Humidity;BMP_temperature;BMP_pressure;BME280_temperature;BME280_humidity;BME280_pressure;Samples;Min_cycle;Max_cycle;Signal;HPM_P1;HPM_P2
2022/02/24 00:01:32;;;;;;;2.67;0.60;;;27.20;72.70;;;;;;5177003;22;20360;-63
2022/02/24 00:03:55;;;;;;;1.58;0.57;;;27.30;72.80;;;;;;5139681;22;20026;-64
2022/02/24 00:06:21;;;;;;;1.05;0.60;;;27.30;72.60;;;;;;5170444;22;20116;-61
2022/02/24 00:08:44;;;;;;;1.65;0.55;;;27.30;72.60;;;;;;5164104;22;20015;-64
2022/02/24 00:11:06;;;;;;;1.83;1.00;;;27.30;72.50;;;;;;5167633;22;20019;-61
2022/02/24 00:13:28;;;;;;;1.23;0.50;;;27.40;72.50;;;;;;5175921;22;20336;-62
2022/02/24 00:15:51;;;;;;;1.02;0.55;;;27.40;72.50;;;;;;5171451;22;20076;-61
2022/02/24 00:18:13;;;;;;;1.80;0.60;;;27.40;72.50;;;;;;5170899;22;20045;-64
2022/02/24 00:20:36;;;;;;;0.90;0.55;;;27.40;72.40;;;;;;5174610;22;21003;-63
2022/02/24 00:22:58;;;;;;;1.15;0.40;;;27.50;72.40;;;;;;5173212;22;20015;-61
2022/02/24 00:25:21;;;;;;;1.27;0.65;;;27.50;72.30;;;;;;5171191;22;20296;-60
2022/02/24 00:27:43;;;;;;;0.95;0.50;;;27.50;72.20;;;;;;5173608;22;20026;-61
2022/02/24 00:30:07;;;;;;;1.23;0.30;;;27.50;72.50;;;;;;5177586;22;20042;-60
2022/02/24 00:32:30;;;;;;;0.40;0.40;;;27.60;72.10;;;;;;5170598;22;20038;-60
2022/02/24 00:34:52;;;;;;;0.40;0.40;;;27.60;72.10;;;;;;5178081;22;20152;-61
2022/02/24 00:37:15;;;;;;;0.68;0.50;;;27.70;72.10;;;;;;5167566;22;20517;-60
2022/02/24 00:39:38;;;;;;;1.55;0.55;;;27.70;72.00;;;;;;5174657;22;20034;-63
2022/02/24 00:42:00;;;;;;;0.88;0.50;;;27.70;72.00;;;;;;5181476;22;20124;-61
2022/02/24 00:44:23;;;;;;;5.32;0.57;;;27.70;71.90;;;;;;5177408;22;20022;-60
2022/02/24 00:46:46;;;;;;;0.83;0.50;;;27.70;71.80;;;;;;5174268;22;20581;-60
2022/02/24 00:49:09;;;;;;;0.47;0.40;;;27.80;71.90;;;;;;5181799;22;20482;-61
2022/02/24 00:51:32;;;;;;;0.50;0.35;;;27.80;71.80;;;;;;5178440;22;20022;-61
2022/02/24 00:53:54;;;;;;;0.90;0.40;;;27.80;71.70;;;;;;5146376;22;20921;-62
2022/02/24 00:56:17;;;;;;;0.52;0.40;;;27.80;71.60;;;;;;5154308;22;20015;-61
2022/02/24 00:58:39;;;;;;;0.68;0.47;;;27.80;71.60;;;;;;5181906;22;20179;-61
2022/02/24 01:01:03;;;;;;;1.05;0.47;;;27.90;71.70;;;;;;5179538;22;20066;-58
2022/02/24 01:03:26;;;;;;;0.85;0.40;;;27.90;71.60;;;;;;5184332;22;20011;-60
2022/02/24 01:05:49;;;;;;;0.50;0.32;;;27.90;71.70;;;;;;5147918;22;20226;-61
2022/02/24 01:08:11;;;;;;;;;;;27.90;71.10;;;;;;5180473;22;20420;-61
2022/02/24 01:10:34;;;;;;;2.05;0.82;;;27.90;71.50;;;;;;5183948;22;19907;-61
2022/02/24 01:12:56;;;;;;;2.47;1.20;;;27.90;70.80;;;;;;5181020;22;20053;-62
2022/02/24 01:15:19;;;;;;;3.00;0.70;;;27.90;70.50;;;;;;5181027;22;20087;-61
2022/02/24 01:17:46;;;;;;;3.47;1.20;;;27.90;70.40;;;;;;5186848;22;20411;-62
2022/02/24 01:20:10;;;;;;;2.42;1.10;;;27.80;70.30;;;;;;5185968;22;20065;-63
2022/02/24 01:22:32;;;;;;;4.88;1.55;;;27.80;70.50;;;;;;5152502;22;20203;-62
2022/02/24 01:24:55;;;;;;;2.90;1.00;;;27.80;70.50;;;;;;5193965;22;20074;-60
2022/02/24 01:27:18;;;;;;;3.17;1.20;;;27.80;70.70;;;;;;5188019;22;20240;-63
2022/02/24 01:29:40;;;;;;;1.85;0.77;;;27.80;70.90;;;;;;5188191;22;20015;-63
2022/02/24 01:32:03;;;;;;;5.68;1.25;;;27.80;70.70;;;;;;5193525;22;20036;-61
2022/02/24 01:34:27;;;;;;;3.28;1.20;;;27.80;70.70;;;;;;5188800;22;20014;-61
2022/02/24 01:36:49;;;;;;;2.58;1.20;;;27.70;70.70;;;;;;5189693;22;20011;-61
2022/02/24 01:39:12;;;;;;;2.58;1.15;;;27.70;70.90;;;;;;5200526;22;20011;-62
2022/02/24 01:41:34;;;;;;;3.80;1.25;;;27.70;71.00;;;;;;5196657;22;20019;-62
2022/02/24 01:44:06;;;;;;;2.53;0.98;;;27.70;71.30;;;;;;5195047;22;20011;-61
2022/02/24 01:46:29;;;;;;;3.30;1.15;;;27.70;71.50;;;;;;5151090;22;20011;-61
2022/02/24 01:48:52;;;;;;;3.35;1.13;;;27.70;71.60;;;;;;5179746;22;20070;-62
2022/02/24 01:51:15;;;;;;;4.07;1.35;;;27.80;71.80;;;;;;5184577;22;20007;-61
2022/02/24 01:53:38;;;;;;;4.47;1.48;;;27.70;71.80;;;;;;5172419;22;20483;-62
2022/02/24 01:56:00;;;;;;;2.60;1.17;;;27.80;72.00;;;;;;5168950;22;20011;-61
2022/02/24 01:58:23;;;;;;;5.50;1.58;;;27.80;72.00;;;;;;5178105;22;20468;-61
2022/02/24 02:00:46;;;;;;;2.10;0.90;;;27.80;71.90;;;;;;5170832;22;20026;-61
2022/02/24 02:03:09;;;;;;;3.83;1.27;;;27.80;72.00;;;;;;5170552;22;20126;-64
2022/02/24 02:05:32;;;;;;;5.18;1.42;;;27.80;72.00;;;;;;5175830;22;20015;-62
2022/02/24 02:07:56;;;;;;;2.80;1.23;;;27.80;72.70;;;;;;5169036;22;20502;-64
2022/02/24 02:10:18;;;;;;;5.38;1.40;;;27.80;72.10;;;;;;5165054;22;20131;-62
2022/02/24 02:12:52;;;;;;;4.38;1.38;;;27.80;72.10;;;;;;5175283;22;20043;-61
2022/02/24 02:15:14;;;;;;;5.93;1.55;;;27.80;72.10;;;;;;5173018;22;20175;-61
2022/02/24 02:17:37;;;;;;;3.67;1.27;;;27.80;72.00;;;;;;5176181;22;20072;-63
2022/02/24 02:19:59;;;;;;;2.45;1.02;;;27.90;72.20;;;;;;5170344;22;20033;-62
2022/02/24 02:22:21;;;;;;;1.73;0.90;;;27.90;72.30;;;;;;5172360;22;20034;-63
2022/02/24 02:25:03;;;;;;;4.10;1.25;;;27.90;72.30;;;;;;5177312;22;20106;-62
2022/02/24 02:27:26;;;;;;;2.88;0.70;;;28.00;73.00;;;;;;5176767;22;20022;-63
2022/02/24 02:29:48;;;;;;;2.28;1.00;;;28.00;72.80;;;;;;5170394;22;20038;-61
2022/02/24 02:32:10;;;;;;;2.72;0.82;;;28.10;72.70;;;;;;5170711;22;20011;-62
2022/02/24 02:34:33;;;;;;;1.92;0.95;;;28.10;72.60;;;;;;5178228;22;20061;-62
2022/02/24 02:36:55;;;;;;;2.60;0.70;;;28.10;72.40;;;;;;5170824;22;20126;-63
2022/02/24 02:39:18;;;;;;;3.55;0.80;;;28.20;72.70;;;;;;5161978;22;20015;-63
2022/02/24 02:41:43;;;;;;;1.27;0.60;;;28.20;72.40;;;;;;5168023;22;20019;-63
2022/02/24 02:44:06;;;;;;;0.80;0.70;;;28.30;72.20;;;;;;5170126;22;20196;-62
2022/02/24 02:46:28;;;;;;;0.88;0.50;;;28.30;72.20;;;;;;5171027;22;21032;-61
2022/02/24 02:48:51;;;;;;;0.67;0.67;;;28.40;72.30;;;;;;5176644;22;20022;-63
2022/02/24 02:51:14;;;;;;;1.48;0.43;;;28.40;72.00;;;;;;5169883;22;20240;-61
2022/02/24 02:53:36;;;;;;;2.20;1.15;;;28.40;71.90;;;;;;5171052;22;21078;-66
2022/02/24 02:55:59;;;;;;;1.55;0.90;;;28.40;71.90;;;;;;5146583;22;20020;-61
2022/02/24 02:58:21;;;;;;;3.03;1.10;;;28.50;71.80;;;;;;5172484;22;20213;-64
2022/02/24 03:00:44;;;;;;;1.92;1.13;;;28.50;71.70;;;;;;5171214;22;20031;-63
2022/02/24 03:03:06;;;;;;;2.17;1.05;;;28.50;71.70;;;;;;5175944;22;20047;-62
2022/02/24 03:05:29;;;;;;;2.00;0.80;;;28.60;71.90;;;;;;5171369;22;20874;-61
2022/02/24 03:07:51;;;;;;;3.22;0.80;;;28.60;72.00;;;;;;5169884;22;20585;-63
2022/02/24 03:10:14;;;;;;;1.70;0.82;;;28.60;72.00;;;;;;5177595;22;20025;-63
2022/02/24 03:12:36;;;;;;;1.83;1.00;;;28.60;72.00;;;;;;5168464;22;20019;-60
2022/02/24 03:14:59;;;;;;;1.70;0.67;;;28.70;72.50;;;;;;5168716;22;20433;-62
2022/02/24 03:17:22;;;;;;;1.58;0.47;;;28.70;72.10;;;;;;5175769;22;20065;-62
2022/02/24 03:19:44;;;;;;;0.63;0.40;;;28.70;72.10;;;;;;5168621;22;20138;-60
2022/02/24 03:22:12;;;;;;;2.25;0.80;;;28.80;72.10;;;;;;5169062;22;20844;-63
2022/02/24 03:24:35;;;;;;;0.73;0.40;;;28.80;72.10;;;;;;5172026;22;20071;-61
2022/02/24 03:26:57;;;;;;;1.53;0.60;;;28.80;72.10;;;;;;5169239;22;20015;-64
2022/02/24 03:29:19;;;;;;;1.20;0.50;;;28.90;72.20;;;;;;5174844;22;20785;-63
2022/02/24 03:31:42;;;;;;;0.70;0.50;;;28.90;72.30;;;;;;5172986;22;20562;-65
2022/02/24 03:34:05;;;;;;;0.82;0.60;;;28.90;72.10;;;;;;5174018;22;20401;-61
2022/02/24 03:36:27;;;;;;;0.98;0.57;;;28.90;72.10;;;;;;5179125;22;20070;-63
2022/02/24 03:38:50;;;;;;;0.95;0.35;;;29.00;72.10;;;;;;5170414;22;20646;-63
2022/02/24 03:41:12;;;;;;;1.00;0.63;;;29.00;72.70;;;;;;5171037;22;20049;-60
2022/02/24 03:43:34;;;;;;;1.42;0.47;;;29.00;72.00;;;;;;5175215;22;20145;-62
2022/02/24 03:45:58;;;;;;;0.43;0.43;;;29.10;71.90;;;;;;5178406;22;20094;-63
2022/02/24 03:48:20;;;;;;;4.55;0.82;;;29.10;71.90;;;;;;5171094;22;20072;-64
2022/02/24 03:50:43;;;;;;;0.75;0.60;;;29.10;71.80;;;;;;5174451;22;21032;-66
2022/02/24 03:53:05;;;;;;;1.35;0.30;;;29.10;71.70;;;;;;5172913;22;20513;-61
2022/02/24 03:55:28;;;;;;;1.17;0.63;;;29.10;71.60;;;;;;5171178;22;20023;-65
2022/02/24 03:57:50;;;;;;;0.95;0.50;;;29.10;71.50;;;;;;5174832;22;20015;-66
2022/02/24 04:00:13;;;;;;;1.27;0.45;;;29.20;71.60;;;;;;5178252;22;20030;-65
2022/02/24 04:02:36;;;;;;;0.98;0.57;;;29.20;71.50;;;;;;5174329;22;20126;-63
2022/02/24 04:04:58;;;;;;;4.18;0.68;;;29.20;71.50;;;;;;5175810;22;20014;-63
2022/02/24 04:07:20;;;;;;;0.68;0.43;;;29.20;71.50;;;;;;5179945;22;20449;-64
2022/02/24 04:09:43;;;;;;;1.63;0.60;;;29.30;71.40;;;;;;5174739;22;20068;-62
2022/02/24 04:12:06;;;;;;;0.63;0.47;;;29.30;71.70;;;;;;5176432;22;20018;-62
2022/02/24 04:14:29;;;;;;;1.55;0.50;;;29.30;71.70;;;;;;5180689;22;20425;-64
2022/02/24 04:16:51;;;;;;;1.42;0.50;;;29.30;71.80;;;;;;5173550;22;20380;-64
2022/02/24 04:19:14;;;;;;;1.90;0.50;;;29.30;71.70;;;;;;5178222;22;20043;-63
2022/02/24 04:21:36;;;;;;;1.95;0.50;;;29.30;71.80;;;;;;5181035;22;20027;-60
2022/02/24 04:23:59;;;;;;;0.85;0.40;;;29.30;72.70;;;;;;5174046;22;20080;-64
2022/02/24 04:26:21;;;;;;;2.53;0.60;;;29.30;71.80;;;;;;5179385;22;21030;-66
2022/02/24 04:28:43;;;;;;;0.98;0.60;;;29.30;71.90;;;;;;5184800;22;20088;-61
2022/02/24 04:31:06;;;;;;;2.47;0.80;;;29.30;71.90;;;;;;5147858;22;20019;-61
2022/02/24 04:33:28;;;;;;;0.88;0.40;;;29.30;71.90;;;;;;5176426;22;20007;-60
2022/02/24 04:35:51;;;;;;;1.42;0.50;;;;;;;;;;5183380;22;20047;-61
2022/02/24 04:38:13;;;;;;;1.33;0.50;;;29.30;71.90;;;;;;5176315;22;20019;-61
2022/02/24 04:40:36;;;;;;;0.75;0.57;;;29.30;71.90;;;;;;5176296;22;20099;-60
2022/02/24 04:42:58;;;;;;;1.60;0.40;;;29.30;71.90;;;;;;5183627;22;20348;-60
2022/02/24 04:45:21;;;;;;;1.13;0.57;;;29.30;71.80;;;;;;5178341;22;20015;-60
2022/02/24 04:47:43;;;;;;;1.75;0.55;;;29.30;71.80;;;;;;5175852;22;20089;-61
2022/02/24 04:50:08;;;;;;;1.48;0.63;;;29.30;71.80;;;;;;5174731;22;20516;-61
2022/02/24 04:52:31;;;;;;;1.45;0.50;;;29.30;71.90;;;;;;5178592;22;20486;-61
2022/02/24 04:54:53;;;;;;;1.63;0.50;;;29.30;72.10;;;;;;5180622;22;20046;-61
2022/02/24 04:57:16;;;;;;;1.05;0.57;;;29.30;72.40;;;;;;5182409;22;20467;-60
2022/02/24 04:59:38;;;;;;;1.15;0.52;;;29.30;72.30;;;;;;5176226;22;20410;-60
2022/02/24 05:02:01;;;;;;;1.35;0.57;;;29.40;72.30;;;;;;5174456;22;20404;-61
2022/02/24 05:04:23;;;;;;;0.98;0.40;;;29.30;72.30;;;;;;5186346;22;20015;-59
2022/02/24 05:06:46;;;;;;;1.88;0.82;;;29.30;72.50;;;;;;5183888;22;20763;-60
2022/02/24 05:09:08;;;;;;;0.63;0.40;;;29.30;72.60;;;;;;5186321;22;20019;-60
2022/02/24 05:11:31;;;;;;;1.23;0.60;;;29.40;72.80;;;;;;5187722;22;20364;-61
2022/02/24 05:13:53;;;;;;;1.23;0.47;;;29.40;72.70;;;;;;5184049;22;20407;-59
2022/02/24 05:16:15;;;;;;;0.80;0.40;;;29.40;72.70;;;;;;5183873;22;20049;-62
2022/02/24 05:18:38;;;;;;;0.60;0.35;;;29.40;72.70;;;;;;5189862;22;20015;-61
2022/02/24 05:21:00;;;;;;;0.85;0.40;;;29.40;72.70;;;;;;5182256;22;20092;-61
2022/02/24 05:23:23;;;;;;;1.10;0.47;;;29.40;72.90;;;;;;5184197;22;20072;-60
2022/02/24 05:25:45;;;;;;;1.00;0.47;;;29.40;72.80;;;;;;5190040;22;20451;-58
2022/02/24 05:28:10;;;;;;;1.27;0.68;;;29.50;72.90;;;;;;5185145;22;20040;-61
2022/02/24 05:30:32;;;;;;;0.70;0.47;;;29.50;72.90;;;;;;5187359;22;20146;-62
2022/02/24 05:32:55;;;;;;;2.10;0.40;;;29.50;72.90;;;;;;5192161;22;20037;-62
2022/02/24 05:35:17;;;;;;;2.70;0.65;;;29.50;72.90;;;;;;5183081;22;20019;-60
2022/02/24 05:37:39;;;;;;;1.58;0.60;;;29.50;72.90;;;;;;5182676;22;20011;-62
2022/02/24 05:40:03;;;;;;;2.92;0.68;;;29.50;72.80;;;;;;5191903;22;20265;-62
2022/02/24 05:42:26;;;;;;;1.05;0.60;;;29.50;72.90;;;;;;5187949;22;20007;-62
2022/02/24 05:44:48;;;;;;;0.50;0.38;;;29.50;72.80;;;;;;5197847;22;20546;-68
2022/02/24 05:47:11;;;;;;;4.13;1.10;;;29.50;73.40;;;;;;5203517;22;20011;-62
2022/02/24 05:49:38;;;;;;;7.07;1.10;;;29.50;72.10;;;;;;5191849;22;20015;-61
2022/02/24 05:52:01;;;;;;;5.43;1.13;;;29.50;71.90;;;;;;5180630;22;20011;-64
2022/02/24 05:54:23;;;;;;;3.78;1.33;;;29.40;72.00;;;;;;5180055;22;20432;-64
2022/02/24 05:56:45;;;;;;;4.63;1.63;;;29.40;71.10;;;;;;5176517;22;20518;-64
2022/02/24 05:59:08;;;;;;;2.88;1.30;;;29.40;71.00;;;;;;5176041;22;20011;-64
2022/02/24 06:01:31;;;;;;;4.32;1.33;;;29.40;70.90;;;;;;5175283;22;20450;-64
2022/02/24 06:03:53;;;;;;;3.10;1.10;;;29.40;70.90;;;;;;5173709;22;20626;-65
2022/02/24 06:06:16;;;;;;;5.22;1.33;;;29.30;70.90;;;;;;5173483;22;20251;-66
2022/02/24 06:08:38;;;;;;;1.98;1.13;;;29.30;70.80;;;;;;5171046;22;20007;-64
2022/02/24 06:11:02;;;;;;;4.57;1.40;;;29.30;70.90;;;;;;5168036;22;20684;-66
2022/02/24 06:13:25;;;;;;;3.17;1.35;;;29.30;70.90;;;;;;5174404;22;20102;-66
2022/02/24 06:15:48;;;;;;;3.63;1.40;;;29.30;70.90;;;;;;5170568;22;20018;-67
2022/02/24 06:18:16;;;;;;;2.92;1.15;;;29.20;70.90;;;;;;5167962;22;20584;-66
2022/02/24 06:20:39;;;;;;;3.03;1.10;;;29.20;70.90;;;;;;5176891;22;20083;-66
2022/02/24 06:23:01;;;;;;;3.30;1.30;;;29.20;70.90;;;;;;5171274;22;20030;-66
2022/02/24 06:25:24;;;;;;;2.65;1.17;;;29.20;71.70;;;;;;5169999;22;20015;-67
2022/02/24 06:27:46;;;;;;;5.35;1.30;;;29.20;70.90;;;;;;5179574;22;20110;-67
2022/02/24 06:30:09;;;;;;;2.80;1.17;;;29.20;71.00;;;;;;5172735;22;20015;-66
2022/02/24 06:32:31;;;;;;;2.97;1.15;;;29.10;70.90;;;;;;5174546;22;20119;-66
2022/02/24 06:34:54;;;;;;;4.77;1.23;;;29.10;71.00;;;;;;5171194;22;20030;-67
2022/02/24 06:37:16;;;;;;;4.22;1.52;;;29.10;71.00;;;;;;5173404;22;20008;-66
2022/02/24 06:39:39;;;;;;;2.85;0.90;;;29.10;71.00;;;;;;5174081;22;20819;-66
2022/02/24 06:42:02;;;;;;;3.75;1.05;;;29.10;71.10;;;;;;5180519;22;20786;-66
2022/02/24 06:44:24;;;;;;;2.57;1.50;;;29.10;71.20;;;;;;5174324;22;20329;-66
2022/02/24 06:46:46;;;;;;;2.97;1.20;;;29.10;71.10;;;;;;5174376;22;20171;-63
2022/02/24 06:49:09;;;;;;;3.53;1.27;;;29.00;71.20;;;;;;5180996;22;20026;-66
2022/02/24 06:51:31;;;;;;;4.70;1.27;;;29.00;71.10;;;;;;5172534;22;20019;-63
2022/02/24 06:53:54;;;;;;;3.65;0.98;;;29.00;71.10;;;;;;5173524;22;20348;-64
2022/02/24 06:56:16;;;;;;;3.33;1.10;;;29.00;71.20;;;;;;5179503;22;20026;-64
2022/02/24 06:58:39;;;;;;;3.33;1.20;;;29.00;71.20;;;;;;5173889;22;20011;-63
2022/02/24 07:01:02;;;;;;;5.78;1.30;;;28.90;71.20;;;;;;5174185;22;20785;-63
2022/02/24 07:03:24;;;;;;;2.90;1.48;;;28.90;71.20;;;;;;5171902;22;20065;-63
2022/02/24 07:05:47;;;;;;;2.58;1.17;;;28.90;71.30;;;;;;5172174;22;20015;-64
2022/02/24 07:08:09;;;;;;;4.22;1.30;;;28.90;71.30;;;;;;5174209;22;20038;-63
2022/02/24 07:10:32;;;;;;;4.03;1.38;;;28.90;71.30;;;;;;5182242;22;20021;-66
2022/02/24 07:12:54;;;;;;;2.20;1.30;;;28.90;71.30;;;;;;5174660;22;20086;-64
2022/02/24 07:15:16;;;;;;;3.00;1.10;;;28.80;71.30;;;;;;5175446;22;20861;-65
2022/02/24 07:17:48;;;;;;;3.03;0.90;;;28.80;71.30;;;;;;5181925;22;20351;-64
2022/02/24 07:20:12;;;;;;;3.50;1.10;;;28.80;70.70;;;;;;5175323;22;20023;-64
2022/02/24 07:22:34;;;;;;;3.03;1.27;;;28.80;71.30;;;;;;5182242;22;20011;-63
2022/02/24 07:24:57;;;;;;;2.65;1.33;;;28.80;71.40;;;;;;5177661;22;20451;-64
2022/02/24 07:27:19;;;;;;;2.72;0.85;;;28.80;71.40;;;;;;5175610;22;20011;-63
2022/02/24 07:29:42;;;;;;;4.07;1.88;;;28.80;71.40;;;;;;5182318;22;20072;-64
2022/02/24 07:32:05;;;;;;;4.40;1.15;;;28.70;71.40;;;;;;5178028;22;20865;-64
2022/02/24 07:34:27;;;;;;;3.53;1.10;;;28.70;71.40;;;;;;5176955;22;20053;-64
2022/02/24 07:36:52;;;;;;;4.32;1.30;;;28.70;71.40;;;;;;5152128;22;20018;-64
2022/02/24 07:39:15;;;;;;;3.17;1.20;;;28.70;71.50;;;;;;5178534;22;20513;-64
2022/02/24 07:41:39;;;;;;;4.68;1.52;;;28.70;71.50;;;;;;5179663;22;20066;-64
2022/02/24 07:44:01;;;;;;;;;;;28.70;71.50;;;;;;5188227;22;20022;-64
2022/02/24 07:46:23;;;;;;;4.18;1.30;;;28.70;71.40;;;;;;5176156;22;19979;-64
2022/02/24 07:48:46;;;;;;;1.90;0.90;;;28.60;71.50;;;;;;5180435;22;20012;-65
2022/02/24 07:51:08;;;;;;;1.85;0.95;;;28.60;71.50;;;;;;5177861;22;20773;-63
2022/02/24 07:53:31;;;;;;;4.53;0.97;;;28.60;71.60;;;;;;5179806;22;20017;-63
2022/02/24 07:55:53;;;;;;;2.53;1.10;;;28.60;71.60;;;;;;5181134;22;20045;-63
2022/02/24 07:58:16;;;;;;;4.32;1.13;;;28.60;71.70;;;;;;5186746;22;20057;-64
2022/02/24 08:00:38;;;;;;;2.25;1.13;;;28.60;71.70;;;;;;5180951;22;20023;-64
2022/02/24 08:03:01;;;;;;;2.38;1.20;;;28.60;71.70;;;;;;5176473;22;20015;-63
2022/02/24 08:05:23;;;;;;;2.28;1.00;;;28.50;71.70;;;;;;5186295;22;20019;-64
2022/02/24 08:07:46;;;;;;;2.75;1.10;;;28.50;71.70;;;;;;5151043;22;20470;-64
2022/02/24 08:10:09;;;;;;;3.35;1.30;;;28.50;71.70;;;;;;5180504;22;20710;-63
2022/02/24 08:12:42;;;;;;;2.93;0.90;;;28.50;71.80;;;;;;5184942;22;20629;-64
2022/02/24 08:15:06;;;;;;;3.10;1.25;;;28.50;71.80;;;;;;5181394;22;20064;-63
2022/02/24 08:17:28;;;;;;;;;;;28.50;71.80;;;;;;5185345;22;20088;-64
2022/02/24 08:19:50;;;;;;;2.72;1.17;;;28.50;71.70;;;;;;5181776;22;20367;-64
2022/02/24 08:22:12;;;;;;;3.17;1.42;;;28.50;71.90;;;;;;5181879;22;20026;-64
2022/02/24 08:24:35;;;;;;;2.72;1.20;;;28.40;71.90;;;;;;5181731;22;20019;-64
2022/02/24 08:26:57;;;;;;;2.72;0.95;;;28.40;71.90;;;;;;5185485;22;20015;-64
2022/02/24 08:29:20;;;;;;;2.53;1.20;;;28.40;71.90;;;;;;5177857;22;20015;-64
2022/02/24 08:31:43;;;;;;;2.85;1.00;;;28.40;72.00;;;;;;5180576;22;20121;-64
2022/02/24 08:34:05;;;;;;;2.10;0.80;;;28.40;72.00;;;;;;5184172;22;20014;-64
2022/02/24 08:36:28;;;;;;;3.30;1.27;;;28.40;72.00;;;;;;5176375;22;20022;-64
2022/02/24 08:38:50;;;;;;;2.67;1.42;;;28.40;72.00;;;;;;5150013;22;20018;-64
2022/02/24 08:41:13;;;;;;;2.63;1.30;;;28.30;72.00;;;;;;5186883;22;20026;-64
2022/02/24 08:43:35;;;;;;;3.13;1.08;;;28.40;72.20;;;;;;5180226;22;20120;-64
2022/02/24 08:45:57;;;;;;;2.90;1.20;;;28.40;72.10;;;;;;5180779;22;20122;-65
2022/02/24 08:48:20;;;;;;;1.63;0.73;;;28.30;72.00;;;;;;5187367;22;20351;-64
2022/02/24 08:50:43;;;;;;;2.58;1.10;;;28.30;72.10;;;;;;5183896;22;20501;-64
2022/02/24 08:53:06;;;;;;;2.70;1.27;;;28.30;72.20;;;;;;5179563;22;20076;-65
2022/02/24 08:55:28;;;;;;;3.15;1.20;;;28.30;72.20;;;;;;5186961;22;20011;-65
2022/02/24 08:57:51;;;;;;;2.55;1.02;;;28.30;72.20;;;;;;5183134;22;20018;-65
2022/02/24 09:00:14;;;;;;;1.70;0.95;;;28.30;72.30;;;;;;5180661;22;20142;-64
2022/02/24 09:02:36;;;;;;;3.55;0.90;;;28.30;72.30;;;;;;5179142;22;20015;-62
2022/02/24 09:04:59;;;;;;;2.55;1.30;;;28.30;72.30;;;;;;5179847;22;20015;-63
2022/02/24 09:07:21;;;;;;;4.10;1.33;;;28.20;72.20;;;;;;5179753;22;20363;-63
2022/02/24 09:09:44;;;;;;;3.22;1.33;;;28.20;72.20;;;;;;5185913;22;20617;-64
2022/02/24 09:12:06;;;;;;;2.13;1.08;;;28.30;72.50;;;;;;5188828;22;20050;-64
2022/02/24 09:14:30;;;;;;;3.05;1.30;;;28.20;72.30;;;;;;5178520;22;20023;-65
2022/02/24 09:16:52;;;;;;;2.13;1.02;;;28.20;72.30;;;;;;5183679;22;20440;-65
2022/02/24 09:19:15;;;;;;;2.50;1.20;;;28.20;72.40;;;;;;5181010;22;20015;-66
2022/02/24 09:21:39;;;;;;;3.65;1.40;;;28.20;72.50;;;;;;5180576;22;20026;-62
2022/02/24 09:24:01;;;;;;;2.10;1.02;;;28.20;73.80;;;;;;5187299;22;20022;-64
2022/02/24 09:26:24;;;;;;;2.53;1.10;;;28.10;74.20;;;;;;5186657;22;20031;-64
2022/02/24 09:28:46;;;;;;;2.40;1.13;;;28.10;74.50;;;;;;5179541;22;20164;-64
2022/02/24 09:31:09;;;;;;;2.50;1.05;;;28.10;74.60;;;;;;5187786;22;20015;-67
2022/02/24 09:33:32;;;;;;;3.25;1.10;;;28.10;74.40;;;;;;5182487;22;20015;-65
2022/02/24 09:35:56;;;;;;;2.30;1.00;;;28.00;73.10;;;;;;5186603;22;20071;-66
2022/02/24 09:38:18;;;;;;;2.72;1.33;;;27.90;69.50;;;;;;5187303;22;20040;-66
2022/02/24 09:40:45;;;;;;;3.73;1.10;;;;;;;;;;5188546;22;20049;-65
2022/02/24 09:43:08;;;;;;;3.15;1.40;;;27.70;67.30;;;;;;5189646;22;20007;-66
2022/02/24 09:45:31;;;;;;;1.80;0.80;;;27.30;65.00;;;;;;5198787;22;20385;-65
2022/02/24 09:48:19;;;;;;;3.45;1.17;;;27.00;64.30;;;;;;5202800;22;20014;-67
2022/02/24 09:51:14;;;;;;;2.80;1.13;;;26.80;64.90;;;;;;5187696;22;20014;-65
2022/02/24 09:53:37;;;;;;;5.80;1.27;;;26.50;64.00;;;;;;5198088;22;20591;-68
2022/02/24 09:56:00;;;;;;;2.17;1.00;;;26.30;64.10;;;;;;5195208;22;20709;-67
2022/02/24 09:58:24;;;;;;;2.13;1.08;;;26.10;64.20;;;;;;5191571;22;20011;-70
2022/02/24 10:00:47;;;;;;;;;;;26.00;65.90;;;;;;5189749;22;20030;-66
2022/02/24 10:03:27;;;;;;;4.10;1.05;;;25.80;66.40;;;;;;5192096;22;19906;-64
2022/02/24 10:05:50;;;;;;;4.50;1.38;;;25.80;69.20;;;;;;5176980;22;20015;-64
2022/02/24 10:08:13;;;;;;;2.55;1.25;;;25.80;69.50;;;;;;5190563;22;20450;-64
2022/02/24 10:10:35;;;;;;;2.85;1.13;;;26.00;70.50;;;;;;5188030;22;20342;-70
2022/02/24 10:13:12;;;;;;;1.90;0.90;;;26.00;71.50;;;;;;5189832;22;20038;-66
2022/02/24 10:15:37;;;;;;;3.50;1.17;;;26.10;71.60;;;;;;5131336;22;20050;-67
2022/02/24 10:18:14;;;;;;;3.78;1.08;;;26.20;71.50;;;;;;5188404;22;20954;-66
2022/02/24 10:21:04;;;;;;;2.72;0.68;;;26.20;71.30;;;;;;5183124;22;20045;-65
2022/02/24 10:23:38;;;;;;;1.90;0.60;;;26.30;71.20;;;;;;5173491;22;20354;-65
2022/02/24 10:26:04;;;;;;;1.70;0.85;;;26.40;71.40;;;;;;5183190;22;20015;-64
2022/02/24 10:28:30;;;;;;;1.65;0.70;;;26.40;71.50;;;;;;5186213;22;20946;-64
2022/02/24 10:30:53;;;;;;;2.28;0.60;;;26.40;71.40;;;;;;5154189;22;20027;-65
2022/02/24 10:33:26;;;;;;;1.13;0.60;;;26.50;71.80;;;;;;5184007;22;20022;-67
2022/02/24 10:35:49;;;;;;;1.83;0.82;;;26.60;72.00;;;;;;5187353;22;20046;-70
2022/02/24 10:38:15;;;;;;;2.38;0.93;;;26.60;72.00;;;;;;5182609;22;20094;-67
2022/02/24 10:40:46;;;;;;;2.08;0.77;;;26.60;72.20;;;;;;5188931;22;20030;-62
2022/02/24 10:43:23;;;;;;;1.60;0.80;;;26.70;72.30;;;;;;5184283;22;20015;-66
2022/02/24 10:46:06;;;;;;;2.45;1.20;;;26.70;72.00;;;;;;5150559;22;20909;-62
2022/02/24 10:48:30;;;;;;;4.35;1.23;;;26.80;72.70;;;;;;5183811;22;20731;-67
2022/02/24 10:51:03;;;;;;;2.25;0.93;;;26.80;73.00;;;;;;5184679;22;20015;-64
2022/02/24 10:53:31;;;;;;;2.78;1.15;;;26.90;73.10;;;;;;5183736;22;20022;-66
2022/02/24 10:55:54;;;;;;;2.78;1.00;;;26.90;73.10;;;;;;5184459;22;20012;-65
2022/02/24 10:58:16;;;;;;;;;;;26.90;73.10;;;;;;5188935;22;20539;-65
2022/02/24 11:00:39;;;;;;;4.22;1.25;;;27.00;73.20;;;;;;5183372;22;19944;-66
2022/02/24 11:03:01;;;;;;;2.67;0.93;;;27.00;73.10;;;;;;5183518;22;20053;-63
2022/02/24 11:05:24;;;;;;;1.17;0.70;;;27.10;73.10;;;;;;5158869;22;20066;-62
2022/02/24 11:07:47;;;;;;;4.00;1.13;;;27.10;73.00;;;;;;5182430;22;20061;-66
2022/02/24 11:10:09;;;;;;;6.25;1.02;;;27.10;73.00;;;;;;5182452;22;20586;-68
2022/02/24 11:12:32;;;;;;;3.58;0.88;;;27.10;73.10;;;;;;5192411;22;20512;-66
2022/02/24 11:14:55;;;;;;;1.40;0.90;;;27.20;72.90;;;;;;5185168;22;20019;-70
2022/02/24 11:17:17;;;;;;;1.87;0.90;;;27.20;72.90;;;;;;5192359;22;20011;-64
2022/02/24 11:19:45;;;;;;;1.17;0.63;;;27.20;72.90;;;;;;5192102;22;20244;-68
2022/02/24 11:22:08;;;;;;;3.78;0.85;;;27.20;72.90;;;;;;5185083;22;20200;-73
2022/02/24 11:24:30;;;;;;;5.43;1.15;;;27.30;73.20;;;;;;5158560;22;20014;-71
2022/02/24 11:27:13;;;;;;;2.95;0.80;;;27.30;73.00;;;;;;5190598;22;20023;-69
2022/02/24 11:29:43;;;;;;;3.70;0.80;;;27.30;73.00;;;;;;5190058;22;20015;-66
2022/02/24 11:32:13;;;;;;;2.15;0.90;;;27.30;73.00;;;;;;5186722;22;20811;-72
2022/02/24 11:35:07;;;;;;;5.40;1.38;;;27.30;73.00;;;;;;5192329;22;20463;-66
2022/02/24 11:37:33;;;;;;;3.60;1.30;;;27.30;73.00;;;;;;5156703;22;20023;-66
2022/02/24 11:40:32;;;;;;;3.50;1.00;;;27.40;73.30;;;;;;5187750;22;20023;-63
2022/02/24 11:43:09;;;;;;;2.83;0.90;;;27.40;73.10;;;;;;5180077;22;20094;-68
2022/02/24 11:45:38;;;;;;;3.42;0.93;;;27.40;73.30;;;;;;5188499;22;20070;-68
2022/02/24 11:48:05;;;;;;;4.30;1.13;;;27.40;73.50;;;;;;5183796;22;20081;-66
2022/02/24 11:50:53;;;;;;;5.63;1.15;;;27.40;73.40;;;;;;5186090;22;20049;-65
2022/02/24 11:53:28;;;;;;;1.77;1.00;;;27.40;73.40;;;;;;5189570;22;20047;-66
2022/02/24 11:55:58;;;;;;;3.60;0.70;;;27.40;73.30;;;;;;5180693;22;20022;-67
2022/02/24 11:58:33;;;;;;;3.08;1.05;;;27.40;73.30;;;;;;5184283;22;20022;-68
2022/02/24 12:01:14;;;;;;;2.92;0.98;;;27.50;73.30;;;;;;5187153;22;20015;-69
2022/02/24 12:03:45;;;;;;;2.00;0.60;;;27.50;73.30;;;;;;5183560;22;20019;-70
2022/02/24 12:06:08;;;;;;;2.80;0.90;;;27.50;73.30;;;;;;5183337;22;20015;-67
2022/02/24 12:08:30;;;;;;;2.95;0.68;;;27.50;73.20;;;;;;5182727;22;20157;-67
2022/02/24 12:10:53;;;;;;;1.95;0.85;;;27.50;73.00;;;;;;5189778;22;20019;-65
2022/02/24 12:13:29;;;;;;;1.70;0.85;;;27.50;73.00;;;;;;5150664;22;20031;-68
2022/02/24 12:16:30;;;;;;;1.73;0.65;;;27.60;73.00;;;;;;5193318;22;20068;-68
2022/02/24 12:18:55;;;;;;;1.75;0.80;;;27.60;72.90;;;;;;5058128;23;20709;-68
2022/02/24 12:21:35;;;;;;;1.17;0.60;;;27.60;72.80;;;;;;5061799;23;20507;-65
2022/02/24 12:24:10;;;;;;;1.20;0.57;;;27.60;72.70;;;;;;5140266;22;20011;-64
2022/02/24 12:26:44;;;;;;;3.42;0.75;;;27.70;72.70;;;;;;5183148;22;20553;-66
2022/02/24 12:29:18;;;;;;;1.52;0.75;;;27.70;72.70;;;;;;5187106;22;20023;-65
2022/02/24 12:31:41;;;;;;;1.80;0.70;;;27.70;72.70;;;;;;5155939;22;20898;-66
2022/02/24 12:34:04;;;;;;;3.42;0.68;;;27.70;72.70;;;;;;5182486;22;20015;-66